createdAt,value
2022-10-08T00:00:55.127Z,11.38
2022-10-08T00:02:56.694Z,11.40
2022-10-08T00:04:58.135Z,11.42
2022-10-08T00:06:59.645Z,11.42
2022-10-08T00:09:03.846Z,11.42
2022-10-08T00:11:09.033Z,11.43
2022-10-08T00:13:10.484Z,11.40
2022-10-08T00:15:13.757Z,11.39
2022-10-08T00:17:15.298Z,11.39
2022-10-08T00:19:16.815Z,11.40
2022-10-08T00:21:24.045Z,11.40
2022-10-08T00:23:25.851Z,11.37
2022-10-08T00:25:27.686Z,11.32
2022-10-08T00:27:29.332Z,11.32
2022-10-08T00:29:31.010Z,11.29
2022-10-08T00:31:35.392Z,11.27
2022-10-08T00:33:37.513Z,11.27
2022-10-08T00:35:40.042Z,11.28
2022-10-08T00:37:41.910Z,11.28
2022-10-08T00:39:43.364Z,11.29
2022-10-08T00:41:48.779Z,11.27
2022-10-08T00:43:55.744Z,11.24
2022-10-08T00:45:57.328Z,11.22
2022-10-08T00:47:58.835Z,11.19
2022-10-08T00:50:04.927Z,11.16
2022-10-08T00:52:06.523Z,11.16
2022-10-08T00:54:08.076Z,11.14
2022-10-08T00:56:09.550Z,11.16
2022-10-08T00:58:17.701Z,11.12
2022-10-08T01:00:23.611Z,11.09
2022-10-08T01:02:25.060Z,11.06
2022-10-08T01:04:26.973Z,11.05
2022-10-08T01:06:31.739Z,11.07
2022-10-08T01:08:59.766Z,11.05
2022-10-08T01:11:16.154Z,11.02
2022-10-08T01:13:24.392Z,11.01
2022-10-08T01:15:34.389Z,11.02
2022-10-08T01:17:49.783Z,11.02
2022-10-08T01:20:25.258Z,11.02
2022-10-08T01:23:03.326Z,11.01
2022-10-08T01:25:32.654Z,11.00
2022-10-08T01:27:43.459Z,11.06
2022-10-08T01:29:48.914Z,11.07
2022-10-08T01:31:58.498Z,11.12
2022-10-08T01:34:06.470Z,11.16
2022-10-08T01:36:10.952Z,11.19
2022-10-08T01:38:16.638Z,11.22
2022-10-08T01:40:21.450Z,11.25
2022-10-08T01:42:26.062Z,11.27
2022-10-08T01:44:39.525Z,11.28
2022-10-08T01:46:43.890Z,11.31
2022-10-08T01:48:48.039Z,11.31
2022-10-08T01:51:02.999Z,11.32
2022-10-08T01:53:11.511Z,11.31
2022-10-08T01:55:17.809Z,11.31
2022-10-08T01:57:19.371Z,11.32
2022-10-08T01:59:51.456Z,11.31
2022-10-08T02:01:59.135Z,11.32
2022-10-08T02:04:19.617Z,11.32
2022-10-08T02:06:21.169Z,11.32
2022-10-08T02:08:23.017Z,11.32
2022-10-08T02:10:26.192Z,11.33
2022-10-08T02:12:27.626Z,11.35
2022-10-08T02:14:31.670Z,11.36
2022-10-08T02:16:35.327Z,11.37
2022-10-08T02:18:42.609Z,11.37
2022-10-08T02:21:17.676Z,11.36
2022-10-08T02:23:47.042Z,11.36
2022-10-08T02:26:33.278Z,11.34
2022-10-08T02:28:46.339Z,11.37
2022-10-08T02:30:53.378Z,11.38
2022-10-08T02:33:09.061Z,11.37
2022-10-08T02:35:18.286Z,11.39
2022-10-08T02:37:25.369Z,11.39
2022-10-08T02:39:29.651Z,11.41
2022-10-08T02:41:36.392Z,11.41
2022-10-08T02:43:45.025Z,11.43
2022-10-08T02:46:03.295Z,11.44
2022-10-08T02:48:12.067Z,11.46
2022-10-08T02:50:16.194Z,11.43
2022-10-08T02:52:20.146Z,11.46
2022-10-08T02:54:23.840Z,11.49
2022-10-08T02:56:40.343Z,11.52
2022-10-08T02:58:43.689Z,11.52
2022-10-08T03:01:04.398Z,11.53
2022-10-08T03:03:13.318Z,11.54
2022-10-08T03:05:18.612Z,11.58
2022-10-08T03:07:22.648Z,11.58
2022-10-08T03:09:28.532Z,11.60
2022-10-08T03:11:30.840Z,11.61
2022-10-08T03:13:36.953Z,11.62
2022-10-08T03:15:41.179Z,11.63
2022-10-08T03:17:46.384Z,11.65
2022-10-08T03:19:47.848Z,11.67
2022-10-08T03:21:53.374Z,11.68
2022-10-08T03:23:54.857Z,11.67
2022-10-08T03:25:56.297Z,11.69
2022-10-08T03:27:57.753Z,11.70
2022-10-08T03:29:59.177Z,11.71
2022-10-08T03:32:00.623Z,11.70
2022-10-08T03:34:02.069Z,11.71
2022-10-08T03:36:03.823Z,11.71
2022-10-08T03:38:05.238Z,11.72
2022-10-08T03:40:07.430Z,11.73
2022-10-08T03:42:09.616Z,11.75
2022-10-08T03:44:12.368Z,11.73
2022-10-08T03:46:15.525Z,11.74
2022-10-08T03:48:17.036Z,11.74
2022-10-08T03:50:22.229Z,11.78
2022-10-08T03:52:23.705Z,11.79
2022-10-08T03:54:25.229Z,11.80
2022-10-08T03:56:26.768Z,11.81
2022-10-08T03:58:28.907Z,11.81
2022-10-08T04:00:30.437Z,11.82
2022-10-08T04:02:32.585Z,11.84
2022-10-08T04:04:34.196Z,11.87
2022-10-08T04:06:35.648Z,11.86
2022-10-08T04:08:37.448Z,11.89
2022-10-08T04:10:38.928Z,11.89
2022-10-08T04:12:40.442Z,11.90
2022-10-08T04:14:41.904Z,11.92
2022-10-08T04:16:43.405Z,11.93
2022-10-08T04:18:45.690Z,11.95
2022-10-08T04:20:47.192Z,11.96
2022-10-08T04:22:49.035Z,11.97
2022-10-08T04:24:50.795Z,11.98
2022-10-08T04:26:52.243Z,11.98
2022-10-08T04:28:54.563Z,11.98
2022-10-08T04:31:03.368Z,11.98
2022-10-08T04:33:04.870Z,11.97
2022-10-08T04:35:07.054Z,11.97
2022-10-08T04:37:08.493Z,11.95
2022-10-08T04:39:09.960Z,11.93
2022-10-08T04:41:13.970Z,11.93
2022-10-08T04:43:15.740Z,11.90
2022-10-08T04:45:17.265Z,11.89
2022-10-08T04:47:18.664Z,11.89
2022-10-08T04:49:20.077Z,11.90
2022-10-08T04:51:23.905Z,11.90
2022-10-08T04:53:28.124Z,11.89
2022-10-08T04:55:29.595Z,11.89
2022-10-08T04:57:31.564Z,11.90
2022-10-08T04:59:33.032Z,11.91
2022-10-08T05:01:34.872Z,11.92
2022-10-08T05:03:42.840Z,11.92
2022-10-08T05:05:45.923Z,11.89
2022-10-08T05:07:47.483Z,11.89
2022-10-08T05:09:48.969Z,11.90
2022-10-08T05:11:51.483Z,11.89
2022-10-08T05:13:54.599Z,11.89
2022-10-08T05:15:56.141Z,11.89
2022-10-08T05:17:57.659Z,11.89
2022-10-08T05:19:59.060Z,11.88
2022-10-08T05:22:00.488Z,11.90
2022-10-08T05:24:05.304Z,11.90
2022-10-08T05:26:35.828Z,11.90
2022-10-08T05:28:44.780Z,11.89
2022-10-08T05:30:46.350Z,11.88
2022-10-08T05:32:48.083Z,11.91
2022-10-08T05:34:49.804Z,11.90
2022-10-08T05:36:51.345Z,11.90
2022-10-08T05:38:53.646Z,11.89
2022-10-08T05:40:55.123Z,11.89
2022-10-08T05:42:57.109Z,11.87
2022-10-08T05:44:58.584Z,11.85
2022-10-08T05:47:00.068Z,11.84
2022-10-08T05:49:03.774Z,11.81
2022-10-08T05:51:07.584Z,11.80
2022-10-08T05:53:09.391Z,11.79
2022-10-08T05:55:10.927Z,11.78
2022-10-08T05:57:12.736Z,11.78
2022-10-08T05:59:21.811Z,11.78
2022-10-08T06:01:26.237Z,11.74
2022-10-08T06:03:28.690Z,11.72
2022-10-08T06:05:30.154Z,11.68
2022-10-08T06:07:31.600Z,11.69
2022-10-08T06:09:33.021Z,11.69
2022-10-08T06:11:36.562Z,11.70
2022-10-08T06:13:38.189Z,11.66
2022-10-08T06:15:39.613Z,11.65
2022-10-08T06:17:41.013Z,11.63
2022-10-08T06:19:42.439Z,11.63
2022-10-08T06:21:43.907Z,11.61
2022-10-08T06:23:47.654Z,11.60
2022-10-08T06:25:49.085Z,11.58
2022-10-08T06:27:50.500Z,11.58
2022-10-08T06:29:51.892Z,11.58
2022-10-08T06:31:53.511Z,11.58
2022-10-08T06:33:58.949Z,11.61
2022-10-08T06:36:27.624Z,11.61
2022-10-08T06:38:29.126Z,11.64
2022-10-08T06:40:39.039Z,11.68
2022-10-08T06:42:40.561Z,11.71
2022-10-08T06:44:42.236Z,11.72
2022-10-08T06:46:43.721Z,11.75
2022-10-08T06:48:45.859Z,11.78
2022-10-08T06:50:47.325Z,11.80
2022-10-08T06:52:49.249Z,11.83
2022-10-08T06:54:51.111Z,11.85
2022-10-08T06:56:52.622Z,11.86
2022-10-08T06:58:54.997Z,11.88
2022-10-08T07:01:12.730Z,11.91
2022-10-08T07:03:14.217Z,11.93
2022-10-08T07:05:15.748Z,11.99
2022-10-08T07:07:17.244Z,12.03
2022-10-08T07:09:18.669Z,12.03
2022-10-08T07:11:21.135Z,12.07
2022-10-08T07:13:22.584Z,12.11
2022-10-08T07:15:24.002Z,12.14
2022-10-08T07:17:28.398Z,12.18
2022-10-08T07:19:29.786Z,12.21
2022-10-08T07:21:31.455Z,12.23
2022-10-08T07:23:32.913Z,12.25
2022-10-08T07:25:34.392Z,12.30
2022-10-08T07:27:35.871Z,12.35
2022-10-08T07:29:37.289Z,12.37
2022-10-08T07:31:39.683Z,12.44
2022-10-08T07:33:41.458Z,12.48
2022-10-08T07:35:43.583Z,12.50
2022-10-08T07:37:45.001Z,12.56
2022-10-08T07:39:46.437Z,12.61
2022-10-08T07:41:49.567Z,12.66
2022-10-08T07:43:55.648Z,12.71
2022-10-08T07:45:57.174Z,12.76
2022-10-08T07:47:59.241Z,12.79
2022-10-08T07:50:00.653Z,12.82
2022-10-08T07:52:02.065Z,12.85
2022-10-08T07:54:05.869Z,12.89
2022-10-08T07:56:08.605Z,12.93
2022-10-08T07:58:10.407Z,12.98
2022-10-08T08:00:12.240Z,12.99
2022-10-08T08:02:13.685Z,13.02
2022-10-08T08:04:15.372Z,13.02
2022-10-08T08:06:16.780Z,13.00
2022-10-08T08:08:18.196Z,13.01
2022-10-08T08:10:19.681Z,13.03
2022-10-08T08:12:21.149Z,13.08
2022-10-08T08:14:22.725Z,13.12
2022-10-08T08:16:26.789Z,13.18
2022-10-08T08:18:29.801Z,13.23
2022-10-08T08:20:31.203Z,13.26
2022-10-08T08:22:32.619Z,13.34
2022-10-08T08:24:34.186Z,13.39
2022-10-08T08:26:37.999Z,13.46
2022-10-08T08:28:39.930Z,13.51
2022-10-08T08:30:41.371Z,13.55
2022-10-08T08:32:42.780Z,13.57
2022-10-08T08:34:44.241Z,13.57
2022-10-08T08:36:49.105Z,13.60
2022-10-08T08:38:50.544Z,13.65
2022-10-08T08:40:55.302Z,13.68
2022-10-08T08:42:57.171Z,13.69
2022-10-08T08:45:45.757Z,13.75
2022-10-08T08:47:57.617Z,13.78
2022-10-08T08:50:29.792Z,13.84
2022-10-08T08:52:38.528Z,13.92
2022-10-08T08:54:40.037Z,13.96
2022-10-08T08:56:41.999Z,14.03
2022-10-08T08:58:58.517Z,14.12
2022-10-08T09:01:29.650Z,14.18
2022-10-08T09:03:51.275Z,14.25
2022-10-08T09:05:57.190Z,14.25
2022-10-08T09:08:19.040Z,14.32
2022-10-08T09:10:26.405Z,14.40
2022-10-08T09:12:47.938Z,14.44
2022-10-08T09:14:54.418Z,14.46
2022-10-08T09:16:57.403Z,14.47
2022-10-08T09:18:58.869Z,14.47
2022-10-08T09:21:00.325Z,14.47
2022-10-08T09:23:01.963Z,14.47
2022-10-08T09:25:10.913Z,14.46
2022-10-08T09:27:14.905Z,14.42
2022-10-08T09:29:34.033Z,14.22
2022-10-08T09:31:47.731Z,13.92
2022-10-08T09:33:58.285Z,13.63
2022-10-08T09:36:00.152Z,13.37
2022-10-08T09:38:05.629Z,13.19
2022-10-08T09:40:13.747Z,13.06
2022-10-08T09:42:18.086Z,13.03
2022-10-08T09:44:22.491Z,13.07
2022-10-08T09:46:33.098Z,13.05
2022-10-08T09:48:34.590Z,13.06
2022-10-08T09:50:37.544Z,13.05
2022-10-08T09:52:41.226Z,13.08
2022-10-08T09:54:48.830Z,13.03
2022-10-08T09:56:54.377Z,12.98
2022-10-08T09:59:00.845Z,12.93
2022-10-08T10:01:25.043Z,12.86
2022-10-08T10:03:27.449Z,12.86
2022-10-08T10:05:32.154Z,12.88
2022-10-08T10:07:43.540Z,12.88
2022-10-08T10:09:50.675Z,12.99
2022-10-08T10:12:13.879Z,13.12
2022-10-08T10:14:29.151Z,13.25
2022-10-08T10:16:39.469Z,13.39
2022-10-08T10:18:53.019Z,13.48
2022-10-08T10:20:59.445Z,13.59
2022-10-08T10:23:12.055Z,13.68
2022-10-08T10:25:27.251Z,13.73
2022-10-08T10:27:37.947Z,13.69
2022-10-08T10:30:00.906Z,13.63
2022-10-08T10:32:20.950Z,13.62
2022-10-08T10:34:28.870Z,13.62
2022-10-08T10:36:35.163Z,13.57
2022-10-08T10:38:45.315Z,13.44
2022-10-08T10:41:08.189Z,13.16
2022-10-08T10:43:38.095Z,12.96
2022-10-08T10:45:42.496Z,12.76
2022-10-08T10:47:44.060Z,12.67
2022-10-08T10:49:45.545Z,12.63
2022-10-08T10:52:22.024Z,12.54
2022-10-08T10:54:47.581Z,12.60
2022-10-08T10:56:58.170Z,13.25
2022-10-08T10:59:05.417Z,14.00
2022-10-08T11:01:25.430Z,14.63
2022-10-08T11:04:04.010Z,15.29
2022-10-08T11:06:26.932Z,15.91
2022-10-08T11:08:37.989Z,16.49
2022-10-08T11:10:42.406Z,16.97
2022-10-08T11:12:56.535Z,17.24
2022-10-08T11:15:35.342Z,17.46
2022-10-08T11:17:48.779Z,17.75
2022-10-08T11:19:59.415Z,18.08
2022-10-08T11:22:10.783Z,18.38
2022-10-08T11:24:49.733Z,18.69
2022-10-08T11:27:14.749Z,18.71
2022-10-08T11:29:40.560Z,18.68
2022-10-08T11:31:52.513Z,18.58
2022-10-08T11:33:55.975Z,18.21
2022-10-08T11:36:06.166Z,17.39
2022-10-08T11:38:19.089Z,16.59
2022-10-08T11:40:26.983Z,16.05
2022-10-08T11:42:31.309Z,15.75
2022-10-08T11:44:33.236Z,15.46
2022-10-08T11:46:36.681Z,15.27
2022-10-08T11:48:38.370Z,15.39
2022-10-08T11:50:40.930Z,15.61
2022-10-08T11:52:42.407Z,15.86
2022-10-08T11:54:55.128Z,16.21
2022-10-08T11:58:06.683Z,16.40
2022-10-08T12:00:07.785Z,16.46
2022-10-08T12:02:26.744Z,16.36
2022-10-08T12:04:30.389Z,16.27
2022-10-08T12:06:34.611Z,16.26
2022-10-08T12:08:57.715Z,16.19
2022-10-08T12:11:40.542Z,16.06
2022-10-08T12:13:41.981Z,16.03
2022-10-08T12:15:44.234Z,15.96
2022-10-08T12:17:52.712Z,15.97
2022-10-08T12:20:04.263Z,15.88
2022-10-08T12:22:14.440Z,15.83
2022-10-08T12:24:37.823Z,15.84
2022-10-08T12:27:20.630Z,16.00
2022-10-08T12:29:56.647Z,16.14
2022-10-08T12:32:02.827Z,16.07
2022-10-08T12:34:16.601Z,15.99
2022-10-08T12:36:34.405Z,15.88
2022-10-08T12:38:51.025Z,15.69
2022-10-08T12:41:14.636Z,15.50
2022-10-08T12:43:24.926Z,15.22
2022-10-08T12:45:34.280Z,14.95
2022-10-08T12:47:41.642Z,14.82
2022-10-08T12:50:05.972Z,14.74
2022-10-08T12:52:10.657Z,14.70
2022-10-08T12:54:31.645Z,14.71
2022-10-08T12:56:33.178Z,14.77
2022-10-08T12:58:37.417Z,14.83
2022-10-08T13:00:39.156Z,14.82
2022-10-08T13:02:42.243Z,14.84
2022-10-08T13:04:46.134Z,14.85
2022-10-08T13:06:49.750Z,14.90
2022-10-08T13:08:51.157Z,14.91
2022-10-08T13:10:52.624Z,14.91
2022-10-08T13:13:05.736Z,14.93
2022-10-08T13:15:21.334Z,14.96
2022-10-08T13:17:49.519Z,14.99
2022-10-08T13:20:21.912Z,15.08
2022-10-08T13:22:25.214Z,15.17
2022-10-08T13:24:30.357Z,15.23
2022-10-08T13:26:48.202Z,15.26
2022-10-08T13:29:00.314Z,15.25
2022-10-08T13:31:21.820Z,15.26
2022-10-08T13:33:27.624Z,15.04
2022-10-08T13:35:29.278Z,14.80
2022-10-08T13:37:33.683Z,14.60
2022-10-08T13:39:38.756Z,14.42
2022-10-08T13:41:40.164Z,14.41
2022-10-08T13:43:41.595Z,14.40
2022-10-08T13:45:43.049Z,14.43
2022-10-08T13:47:45.387Z,14.46
2022-10-08T13:49:47.324Z,14.52
2022-10-08T13:51:50.175Z,14.59
2022-10-08T13:53:56.230Z,14.62
2022-10-08T13:55:58.422Z,14.64
2022-10-08T13:58:02.780Z,14.72
2022-10-08T14:00:05.192Z,14.79
2022-10-08T14:02:07.671Z,14.84
2022-10-08T14:04:09.221Z,14.87
2022-10-08T14:06:10.703Z,14.92
2022-10-08T14:08:27.377Z,14.96
2022-10-08T14:10:28.933Z,14.97
2022-10-08T14:12:32.639Z,15.03
2022-10-08T14:14:34.088Z,15.06
2022-10-08T14:16:35.552Z,15.12
2022-10-08T14:18:37.021Z,15.15
2022-10-08T14:20:39.214Z,15.19
2022-10-08T14:22:40.978Z,15.17
2022-10-08T14:24:42.445Z,15.15
2022-10-08T14:26:43.876Z,15.14
2022-10-08T14:28:45.360Z,15.16
2022-10-08T14:30:46.861Z,15.18
2022-10-08T14:32:48.296Z,15.18
2022-10-08T14:34:49.735Z,15.22
2022-10-08T14:36:55.407Z,15.22
2022-10-08T14:38:56.879Z,15.18
2022-10-08T14:40:58.416Z,15.12
2022-10-08T14:42:59.869Z,15.04
2022-10-08T14:45:01.430Z,14.92
2022-10-08T14:47:02.838Z,14.83
2022-10-08T14:49:05.306Z,14.74
2022-10-08T14:51:06.765Z,14.65
2022-10-08T14:53:08.192Z,14.57
2022-10-08T14:55:10.241Z,14.51
2022-10-08T14:57:11.647Z,14.44
2022-10-08T14:59:13.427Z,14.39
2022-10-08T15:01:14.923Z,14.35
2022-10-08T15:03:16.350Z,14.35
2022-10-08T15:05:17.756Z,14.37
2022-10-08T15:07:19.162Z,14.40
2022-10-08T15:09:20.654Z,14.42
2022-10-08T15:11:22.105Z,14.38
2022-10-08T15:13:23.702Z,14.35
2022-10-08T15:15:25.171Z,14.33
2022-10-08T15:17:26.700Z,14.33
2022-10-08T15:19:28.411Z,14.35
2022-10-08T15:21:29.816Z,14.38
2022-10-08T15:23:31.302Z,14.41
2022-10-08T15:25:33.854Z,14.43
2022-10-08T15:27:35.288Z,14.45
2022-10-08T15:29:36.720Z,14.46
2022-10-08T15:31:38.239Z,14.48
2022-10-08T15:33:41.813Z,14.45
2022-10-08T15:35:43.348Z,14.38
2022-10-08T15:37:45.196Z,14.28
2022-10-08T15:39:46.603Z,14.19
2022-10-08T15:41:51.232Z,14.11
2022-10-08T15:43:53.101Z,14.02
2022-10-08T15:45:54.567Z,13.97
2022-10-08T15:47:56.052Z,13.98
2022-10-08T15:49:57.535Z,13.97
2022-10-08T15:51:59.066Z,13.98
2022-10-08T15:54:01.667Z,14.00
2022-10-08T15:56:04.931Z,14.04
2022-10-08T15:58:06.731Z,14.03
2022-10-08T16:00:08.784Z,14.00
2022-10-08T16:02:17.190Z,13.96
2022-10-08T16:04:19.482Z,13.90
2022-10-08T16:06:23.560Z,13.86
2022-10-08T16:08:24.977Z,13.78
2022-10-08T16:10:26.385Z,13.73
2022-10-08T16:12:27.794Z,13.68
2022-10-08T16:14:29.244Z,13.65
2022-10-08T16:16:31.030Z,13.61
2022-10-08T16:18:32.488Z,13.60
2022-10-08T16:20:34.832Z,13.55
2022-10-08T16:22:36.267Z,13.53
2022-10-08T16:24:37.794Z,13.49
2022-10-08T16:26:39.956Z,13.46
2022-10-08T16:28:41.402Z,13.41
2022-10-08T16:30:42.957Z,13.37
2022-10-08T16:32:44.419Z,13.33
2022-10-08T16:34:53.306Z,13.27
2022-10-08T16:36:55.135Z,13.21
2022-10-08T16:38:57.632Z,13.20
2022-10-08T16:41:17.981Z,13.17
2022-10-08T16:43:19.387Z,13.12
2022-10-08T16:45:20.850Z,13.10
2022-10-08T16:47:22.284Z,13.10
2022-10-08T16:49:26.812Z,13.10
2022-10-08T16:51:34.466Z,13.12
2022-10-08T16:53:36.148Z,13.09
2022-10-08T16:55:38.667Z,13.07
2022-10-08T16:57:40.079Z,13.05
2022-10-08T16:59:41.490Z,13.03
2022-10-08T17:01:45.040Z,13.01
2022-10-08T17:03:46.898Z,12.97
2022-10-08T17:05:48.445Z,12.97
2022-10-08T17:07:49.941Z,12.97
2022-10-08T17:09:52.880Z,12.98
2022-10-08T17:11:54.420Z,12.97
2022-10-08T17:13:57.677Z,12.95
2022-10-08T17:16:04.505Z,12.95
2022-10-08T17:18:05.978Z,12.93
2022-10-08T17:20:08.027Z,12.90
2022-10-08T17:22:10.482Z,12.87
2022-10-08T17:24:12.732Z,12.85
2022-10-08T17:26:16.907Z,12.83
2022-10-08T17:28:18.364Z,12.80
2022-10-08T17:30:19.856Z,12.78
2022-10-08T17:32:21.583Z,12.75
2022-10-08T17:34:23.229Z,12.72
2022-10-08T17:36:29.978Z,12.68
2022-10-08T17:38:31.993Z,12.62
2022-10-08T17:40:33.397Z,12.62
2022-10-08T17:42:34.807Z,12.58
2022-10-08T17:44:36.217Z,12.56
2022-10-08T17:46:42.649Z,12.50
2022-10-08T17:48:44.223Z,12.50
2022-10-08T17:50:45.819Z,12.51
2022-10-08T17:52:47.523Z,12.48
2022-10-08T17:54:49.127Z,12.47
2022-10-08T17:56:50.588Z,12.43
2022-10-08T17:58:53.056Z,12.40
2022-10-08T18:01:07.116Z,12.36
2022-10-08T18:03:09.006Z,12.33
2022-10-08T18:05:10.480Z,12.33
2022-10-08T18:07:12.485Z,12.31
2022-10-08T18:09:20.136Z,12.28
2022-10-08T18:11:22.156Z,12.26
2022-10-08T18:13:23.610Z,12.26
2022-10-08T18:15:26.010Z,12.23
2022-10-08T18:17:27.494Z,12.20
2022-10-08T18:19:29.057Z,12.20
2022-10-08T18:21:30.700Z,12.19
2022-10-08T18:23:34.902Z,12.15
2022-10-08T18:25:36.355Z,12.12
2022-10-08T18:27:37.852Z,12.13
2022-10-08T18:29:39.273Z,12.10
2022-10-08T18:31:42.862Z,12.08
2022-10-08T18:33:46.250Z,12.06
2022-10-08T18:35:47.639Z,12.02
2022-10-08T18:37:49.380Z,12.00
2022-10-08T18:39:50.795Z,11.98
2022-10-08T18:41:52.267Z,11.94
2022-10-08T18:43:53.892Z,11.90
2022-10-08T18:45:55.452Z,11.88
2022-10-08T18:47:57.493Z,11.86
2022-10-08T18:49:59.016Z,11.86
2022-10-08T18:52:01.422Z,11.82
2022-10-08T18:54:02.977Z,11.80
2022-10-08T18:56:06.760Z,11.77
2022-10-08T18:58:08.202Z,11.74
2022-10-08T19:00:10.038Z,11.71
2022-10-08T19:02:11.551Z,11.71
2022-10-08T19:04:16.797Z,11.68
2022-10-08T19:06:20.915Z,11.67
2022-10-08T19:08:22.702Z,11.69
2022-10-08T19:10:24.394Z,11.69
2022-10-08T19:12:25.871Z,11.66
2022-10-08T19:14:28.845Z,11.63
2022-10-08T19:16:30.469Z,11.58
2022-10-08T19:18:32.129Z,11.54
2022-10-08T19:20:34.986Z,11.52
2022-10-08T19:22:36.411Z,11.50
2022-10-08T19:24:41.045Z,11.46
2022-10-08T19:26:43.454Z,11.44
2022-10-08T19:28:47.449Z,11.42
2022-10-08T19:30:49.036Z,11.40
2022-10-08T19:32:50.794Z,11.37
2022-10-08T19:34:52.311Z,11.33
2022-10-08T19:36:54.215Z,11.27
2022-10-08T19:39:26.276Z,11.20
2022-10-08T19:41:29.034Z,11.21
2022-10-08T19:43:30.425Z,11.16
2022-10-08T19:45:34.773Z,11.16
2022-10-08T19:47:36.182Z,11.12
2022-10-08T19:49:37.733Z,11.10
2022-10-08T19:51:39.681Z,11.06
2022-10-08T19:53:41.159Z,11.04
2022-10-08T19:55:42.577Z,11.01
2022-10-08T19:57:44.058Z,10.98
2022-10-08T19:59:45.612Z,10.96
2022-10-08T20:01:47.165Z,10.93
2022-10-08T20:03:48.690Z,10.92
2022-10-08T20:05:50.083Z,10.89
2022-10-08T20:07:51.729Z,10.87
2022-10-08T20:09:53.201Z,10.87
2022-10-08T20:11:55.133Z,10.84
2022-10-08T20:13:57.116Z,10.83
2022-10-08T20:16:06.474Z,10.80
2022-10-08T20:18:07.916Z,10.76
2022-10-08T20:20:31.622Z,10.76
2022-10-08T20:22:31.207Z,10.72
2022-10-08T20:24:32.707Z,10.72
2022-10-08T20:26:36.988Z,10.72
2022-10-08T20:28:38.676Z,10.72
2022-10-08T20:30:40.190Z,10.71
2022-10-08T20:32:41.746Z,10.69
2022-10-08T20:34:43.270Z,10.68
2022-10-08T20:36:48.494Z,10.68
2022-10-08T20:38:49.924Z,10.68
2022-10-08T20:40:55.217Z,10.66
2022-10-08T20:42:56.635Z,10.64
2022-10-08T20:44:58.421Z,10.62
2022-10-08T20:47:00.558Z,10.61
2022-10-08T20:49:02.415Z,10.56
2022-10-08T20:51:06.697Z,10.54
2022-10-08T20:53:09.994Z,10.49
2022-10-08T20:55:11.564Z,10.45
2022-10-08T20:57:13.024Z,10.39
2022-10-08T20:59:18.587Z,10.39
2022-10-08T21:01:24.522Z,10.37
2022-10-08T21:03:25.975Z,10.35
2022-10-08T21:05:27.611Z,10.34
2022-10-08T21:07:29.023Z,10.33
2022-10-08T21:09:30.510Z,10.29
2022-10-08T21:11:32.246Z,10.27
2022-10-08T21:13:34.565Z,10.25
2022-10-08T21:15:35.985Z,10.23
2022-10-08T21:17:37.406Z,10.21
2022-10-08T21:19:38.875Z,10.16
2022-10-08T21:21:40.560Z,10.13
2022-10-08T21:23:42.858Z,10.11
2022-10-08T21:25:44.279Z,10.06
2022-10-08T21:27:45.918Z,10.02
2022-10-08T21:29:47.383Z,9.99
2022-10-08T21:31:48.899Z,9.97
2022-10-08T21:33:52.263Z,9.94
2022-10-08T21:35:57.887Z,9.89
2022-10-08T21:37:59.328Z,9.83
2022-10-08T21:40:01.104Z,9.82
2022-10-08T21:42:02.520Z,9.82
2022-10-08T21:44:07.095Z,9.79
2022-10-08T21:46:10.928Z,9.75
2022-10-08T21:48:12.362Z,9.72
2022-10-08T21:50:13.844Z,9.69
2022-10-08T21:52:15.259Z,9.67
2022-10-08T21:54:17.343Z,9.64
2022-10-08T21:56:22.710Z,9.60
2022-10-08T21:58:26.111Z,9.55
2022-10-08T22:00:31.622Z,9.49
2022-10-08T22:02:33.241Z,9.41
2022-10-08T22:04:34.720Z,9.38
2022-10-08T22:06:39.580Z,9.36
2022-10-08T22:08:40.998Z,9.32
2022-10-08T22:10:43.160Z,9.30
2022-10-08T22:12:46.883Z,9.26
2022-10-08T22:14:48.989Z,9.24
2022-10-08T22:16:50.898Z,9.21
2022-10-08T22:18:52.686Z,9.17
2022-10-08T22:20:54.599Z,9.15
2022-10-08T22:22:55.994Z,9.09
2022-10-08T22:24:57.422Z,9.04
2022-10-08T22:26:58.889Z,9.05
2022-10-08T22:29:00.966Z,9.03
2022-10-08T22:31:04.589Z,9.00
2022-10-08T22:33:06.023Z,8.95
2022-10-08T22:35:08.170Z,8.89
2022-10-08T22:37:09.645Z,8.91
2022-10-08T22:39:11.725Z,8.90
2022-10-08T22:41:16.361Z,8.88
2022-10-08T22:43:17.770Z,8.85
2022-10-08T22:45:19.232Z,8.83
2022-10-08T22:47:20.666Z,8.85
2022-10-08T22:49:22.074Z,8.87
2022-10-08T22:51:23.633Z,8.88
2022-10-08T22:53:25.070Z,8.89
2022-10-08T22:55:27.323Z,8.89
2022-10-08T22:57:28.727Z,8.86
2022-10-08T22:59:30.509Z,8.86
2022-10-08T23:01:32.035Z,8.84
2022-10-08T23:03:34.068Z,8.84
2022-10-08T23:05:35.518Z,8.80
2022-10-08T23:07:36.917Z,8.78
2022-10-08T23:09:38.374Z,8.77
2022-10-08T23:11:39.830Z,8.76
2022-10-08T23:13:41.357Z,8.74
2022-10-08T23:15:42.767Z,8.72
2022-10-08T23:17:44.185Z,8.71
2022-10-08T23:19:45.584Z,8.70
2022-10-08T23:21:47.047Z,8.71
2022-10-08T23:23:48.985Z,8.74
2022-10-08T23:25:55.327Z,8.74
2022-10-08T23:27:56.772Z,8.71
2022-10-08T23:29:58.166Z,8.73
2022-10-08T23:31:59.629Z,8.71
2022-10-08T23:34:01.946Z,8.68
2022-10-08T23:36:07.209Z,8.65
2022-10-08T23:38:09.570Z,8.65
2022-10-08T23:40:10.983Z,8.61
2022-10-08T23:42:12.371Z,8.61
2022-10-08T23:44:13.910Z,8.58
2022-10-08T23:46:18.410Z,8.58
2022-10-08T23:48:19.852Z,8.54
2022-10-08T23:50:21.273Z,8.53
2022-10-08T23:52:22.692Z,8.52
2022-10-08T23:54:24.242Z,8.49
2022-10-08T23:56:25.653Z,8.46
2022-10-08T23:58:27.111Z,8.45
